createdAt,value
2022-10-04T00:01:56.777Z,0.50
2022-10-04T00:04:47.821Z,1.00
2022-10-04T00:07:23.283Z,1.00
2022-10-04T00:10:02.604Z,1.00
2022-10-04T00:12:36.408Z,0.00
2022-10-04T00:15:15.379Z,1.25
2022-10-04T00:17:43.818Z,0.00
2022-10-04T00:20:53.695Z,1.00
2022-10-04T00:23:24.920Z,0.00
2022-10-04T00:26:02.101Z,1.00
2022-10-04T00:28:32.822Z,1.00
2022-10-04T00:31:21.060Z,1.00
2022-10-04T00:33:54.786Z,2.00
2022-10-04T00:36:26.036Z,1.50
2022-10-04T00:39:27.791Z,1.25
2022-10-04T00:42:31.808Z,2.25
2022-10-04T00:45:12.156Z,1.00
2022-10-04T00:47:46.493Z,1.00
2022-10-04T00:50:40.260Z,1.00
2022-10-04T00:53:35.781Z,1.00
2022-10-04T00:56:07.602Z,1.00
2022-10-04T00:58:46.276Z,0.25
2022-10-04T01:01:14.780Z,1.00
2022-10-04T01:03:44.560Z,0.50
2022-10-04T01:06:14.055Z,0.50
2022-10-04T01:08:54.110Z,1.00
2022-10-04T01:11:31.089Z,1.75
2022-10-04T01:14:08.830Z,0.00
2022-10-04T01:16:38.214Z,1.00
2022-10-04T01:19:27.461Z,2.00
2022-10-04T01:22:08.127Z,1.00
2022-10-04T01:24:45.171Z,0.00
2022-10-04T01:27:36.745Z,0.25
2022-10-04T01:30:09.396Z,1.00
2022-10-04T01:32:38.877Z,1.25
2022-10-04T01:35:09.823Z,0.00
2022-10-04T01:37:39.747Z,2.00
2022-10-04T01:40:09.953Z,0.00
2022-10-04T01:42:51.589Z,0.75
2022-10-04T01:45:57.310Z,1.00
2022-10-04T01:48:30.452Z,1.00
2022-10-04T01:51:15.577Z,1.25
2022-10-04T01:53:50.068Z,1.00
2022-10-04T01:56:22.501Z,1.00
2022-10-04T01:58:59.584Z,0.33
2022-10-04T02:01:43.828Z,1.00
2022-10-04T02:04:22.053Z,3.00
2022-10-04T02:06:54.497Z,1.00
2022-10-04T02:09:30.063Z,2.00
2022-10-04T02:11:59.574Z,1.33
2022-10-04T02:14:36.148Z,2.00
2022-10-04T02:17:10.876Z,1.33
2022-10-04T02:19:42.522Z,1.00
2022-10-04T02:22:11.968Z,2.00
2022-10-04T02:24:46.150Z,1.00
2022-10-04T02:27:15.326Z,1.00
2022-10-04T02:29:43.840Z,1.50
2022-10-04T02:32:33.103Z,1.00
2022-10-04T02:35:01.999Z,2.75
2022-10-04T02:37:31.191Z,1.00
2022-10-04T02:40:08.887Z,2.00
2022-10-04T02:43:17.306Z,1.00
2022-10-04T02:45:51.545Z,2.00
2022-10-04T02:48:31.999Z,2.00
2022-10-04T02:51:14.800Z,2.33
2022-10-04T02:54:28.343Z,2.00
2022-10-04T02:56:58.017Z,1.75
2022-10-04T02:59:26.736Z,2.00
2022-10-04T03:02:00.533Z,2.00
2022-10-04T03:04:33.021Z,2.75
2022-10-04T03:07:04.765Z,1.00
2022-10-04T03:09:33.393Z,3.25
2022-10-04T03:12:03.632Z,3.00
2022-10-04T03:14:32.682Z,2.00
2022-10-04T03:17:04.507Z,2.00
2022-10-04T03:19:34.151Z,3.00
2022-10-04T03:22:10.429Z,2.00
2022-10-04T03:24:48.628Z,2.00
2022-10-04T03:27:21.307Z,3.50
2022-10-04T03:29:52.004Z,3.00
2022-10-04T03:32:22.165Z,2.25
2022-10-04T03:35:02.799Z,2.00
2022-10-04T03:37:35.234Z,3.00
2022-10-04T03:40:05.013Z,3.00
2022-10-04T03:42:36.228Z,2.33
2022-10-04T03:45:12.069Z,2.00
2022-10-04T03:47:43.692Z,4.67
2022-10-04T03:50:30.579Z,3.00
2022-10-04T03:53:04.763Z,3.75
2022-10-04T03:55:37.022Z,2.50
2022-10-04T03:58:06.961Z,2.00
2022-10-04T04:00:40.679Z,3.50
2022-10-04T04:03:12.267Z,3.00
2022-10-04T04:06:03.703Z,4.00
2022-10-04T04:08:37.783Z,2.75
2022-10-04T04:11:07.623Z,5.33
2022-10-04T04:14:11.339Z,2.00
2022-10-04T04:16:39.889Z,4.00
2022-10-04T04:19:13.789Z,2.00
2022-10-04T04:21:42.527Z,4.00
2022-10-04T04:24:26.213Z,4.00
2022-10-04T04:26:58.279Z,4.75
2022-10-04T04:29:32.396Z,2.00
2022-10-04T04:32:15.315Z,3.33
2022-10-04T04:34:54.759Z,2.00
2022-10-04T04:37:23.235Z,4.00
2022-10-04T04:39:55.223Z,4.25
2022-10-04T04:42:34.435Z,5.00
2022-10-04T04:45:17.070Z,3.00
2022-10-04T04:47:50.710Z,5.00
2022-10-04T04:50:21.334Z,5.00
2022-10-04T04:53:00.552Z,4.00
2022-10-04T04:55:44.461Z,4.00
2022-10-04T04:58:22.686Z,6.00
2022-10-04T05:01:04.993Z,4.00
2022-10-04T05:03:34.452Z,5.25
2022-10-04T05:06:05.251Z,5.25
2022-10-04T05:08:41.052Z,4.25
2022-10-04T05:11:09.655Z,4.50
2022-10-04T05:13:45.138Z,4.50
2022-10-04T05:16:23.759Z,4.33
2022-10-04T05:18:59.063Z,5.25
2022-10-04T05:21:32.279Z,7.00
2022-10-04T05:24:14.663Z,3.33
2022-10-04T05:26:43.451Z,3.67
2022-10-04T05:29:17.438Z,6.00
2022-10-04T05:31:52.538Z,7.00
2022-10-04T05:34:27.377Z,6.25
2022-10-04T05:37:26.735Z,6.50
2022-10-04T05:40:28.188Z,6.50
2022-10-04T05:42:58.585Z,7.00
2022-10-04T05:45:29.035Z,9.00
2022-10-04T05:47:58.957Z,9.75
2022-10-04T05:50:42.288Z,10.00
2022-10-04T05:53:11.083Z,11.25
2022-10-04T05:56:00.256Z,8.00
2022-10-04T05:58:34.563Z,9.00
2022-10-04T06:01:09.042Z,9.00
2022-10-04T06:04:21.701Z,11.00
2022-10-04T06:07:16.881Z,9.00
2022-10-04T06:10:12.017Z,9.00
2022-10-04T06:12:47.566Z,7.75
2022-10-04T06:15:34.422Z,8.00
2022-10-04T06:18:09.893Z,8.00
2022-10-04T06:20:47.259Z,9.50
2022-10-04T06:23:19.380Z,7.50
2022-10-04T06:25:58.305Z,7.75
2022-10-04T06:28:32.655Z,7.00
2022-10-04T06:31:25.071Z,8.00
2022-10-04T06:34:22.630Z,5.50
2022-10-04T06:37:12.768Z,4.75
2022-10-04T06:40:18.066Z,6.00
2022-10-04T06:43:11.535Z,5.25
2022-10-04T06:46:08.621Z,7.00
2022-10-04T06:48:49.767Z,5.00
2022-10-04T06:51:21.116Z,6.33
2022-10-04T06:54:07.309Z,4.00
2022-10-04T06:56:35.590Z,7.00
2022-10-04T06:59:17.586Z,5.00
2022-10-04T07:01:51.732Z,4.50
2022-10-04T07:05:06.332Z,4.00
2022-10-04T07:07:36.688Z,2.50
2022-10-04T07:10:26.780Z,5.25
2022-10-04T07:13:00.891Z,5.00
2022-10-04T07:15:34.794Z,4.33
2022-10-04T07:18:09.395Z,2.00
2022-10-04T07:20:38.319Z,4.67
2022-10-04T07:23:14.718Z,3.50
2022-10-04T07:25:47.313Z,5.00
2022-10-04T07:28:37.638Z,5.25
2022-10-04T07:31:10.816Z,3.75
2022-10-04T07:33:45.479Z,4.00
2022-10-04T07:36:21.756Z,5.75
2022-10-04T07:38:59.853Z,3.50
2022-10-04T07:41:53.314Z,4.50
2022-10-04T07:44:37.984Z,3.50
2022-10-04T07:47:06.355Z,4.50
2022-10-04T07:49:39.821Z,4.75
2022-10-04T07:52:10.896Z,4.50
2022-10-04T07:55:09.704Z,4.33
2022-10-04T07:57:40.834Z,4.25
2022-10-04T08:00:18.023Z,5.75
2022-10-04T08:03:18.613Z,7.00
2022-10-04T08:06:11.781Z,5.67
2022-10-04T08:08:58.553Z,5.33
2022-10-04T08:11:49.051Z,3.00
2022-10-04T08:14:56.624Z,4.25
2022-10-04T08:17:30.738Z,4.00
2022-10-04T08:20:07.614Z,3.00
2022-10-04T08:22:54.529Z,4.67
2022-10-04T08:25:28.948Z,3.25
2022-10-04T08:28:33.866Z,5.00
2022-10-04T08:31:17.449Z,4.50
2022-10-04T08:34:24.419Z,3.25
2022-10-04T08:37:17.258Z,4.00
2022-10-04T08:39:58.747Z,2.50
2022-10-04T08:42:42.286Z,1.25
2022-10-04T08:45:35.039Z,4.00
2022-10-04T08:48:40.785Z,4.00
2022-10-04T08:51:52.186Z,4.25
2022-10-04T08:54:28.241Z,5.25
2022-10-04T08:57:32.354Z,4.00
2022-10-04T09:00:07.694Z,4.75
2022-10-04T09:03:05.433Z,4.50
2022-10-04T09:05:51.967Z,5.25
2022-10-04T09:08:58.732Z,5.50
2022-10-04T09:11:36.874Z,5.25
2022-10-04T09:14:19.058Z,3.75
2022-10-04T09:17:08.227Z,4.00
2022-10-04T09:20:26.344Z,2.25
2022-10-04T09:23:08.904Z,4.25
2022-10-04T09:25:40.231Z,2.33
2022-10-04T09:28:50.087Z,5.25
2022-10-04T09:31:44.470Z,4.25
2022-10-04T09:34:52.132Z,5.00
2022-10-04T09:37:44.205Z,5.00
2022-10-04T09:40:37.075Z,5.75
2022-10-04T09:43:27.255Z,4.50
2022-10-04T09:46:08.252Z,3.50
2022-10-04T09:48:45.515Z,6.00
2022-10-04T09:51:32.427Z,7.25
2022-10-04T09:54:47.911Z,5.25
2022-10-04T09:57:28.357Z,4.50
2022-10-04T10:00:22.546Z,4.67
2022-10-04T10:03:23.831Z,5.33
2022-10-04T10:06:26.341Z,7.50
2022-10-04T10:09:03.574Z,5.75
2022-10-04T10:12:05.691Z,5.00
2022-10-04T10:15:16.534Z,5.75
2022-10-04T10:18:24.528Z,5.75
2022-10-04T10:20:55.982Z,6.00
2022-10-04T10:23:51.806Z,7.00
2022-10-04T10:26:31.168Z,7.00
2022-10-04T10:29:06.570Z,6.50
2022-10-04T10:31:54.858Z,3.50
2022-10-04T10:34:52.804Z,4.75
2022-10-04T10:37:22.720Z,6.00
2022-10-04T10:40:09.222Z,5.00
2022-10-04T10:42:49.892Z,5.00
2022-10-04T10:45:27.076Z,5.67
2022-10-04T10:48:06.683Z,5.00
2022-10-04T10:51:12.385Z,6.50
2022-10-04T10:54:05.635Z,3.33
2022-10-04T10:56:50.817Z,6.25
2022-10-04T10:59:50.931Z,3.75
2022-10-04T11:03:11.857Z,5.00
2022-10-04T11:05:47.916Z,4.00
2022-10-04T11:08:51.440Z,4.75
2022-10-04T11:11:39.143Z,4.50
2022-10-04T11:14:22.497Z,5.50
2022-10-04T11:16:57.564Z,5.00
2022-10-04T11:19:58.142Z,5.00
2022-10-04T11:23:00.525Z,6.00
2022-10-04T11:26:00.742Z,6.50
2022-10-04T11:28:47.210Z,6.25
2022-10-04T11:31:54.208Z,4.00
2022-10-04T11:34:44.633Z,5.33
2022-10-04T11:37:38.916Z,4.75
2022-10-04T11:40:37.092Z,6.00
2022-10-04T11:43:32.264Z,5.00
2022-10-04T11:46:18.728Z,6.00
2022-10-04T11:48:55.993Z,6.00
2022-10-04T11:52:02.300Z,5.00
2022-10-04T11:54:46.100Z,6.00
2022-10-04T11:57:37.638Z,4.00
2022-10-04T12:00:21.321Z,5.00
2022-10-04T12:03:08.343Z,6.00
2022-10-04T12:05:39.730Z,6.00
2022-10-04T12:08:17.220Z,4.75
2022-10-04T12:11:19.187Z,6.00
2022-10-04T12:14:26.726Z,7.00
2022-10-04T12:17:33.872Z,6.00
2022-10-04T12:20:27.821Z,5.50
2022-10-04T12:23:23.060Z,5.33
2022-10-04T12:26:21.444Z,5.00
2022-10-04T12:29:11.227Z,2.25
2022-10-04T12:31:46.613Z,5.25
2022-10-04T12:34:24.908Z,4.00
2022-10-04T12:37:00.357Z,5.00
2022-10-04T12:39:47.545Z,3.25
2022-10-04T12:42:36.917Z,5.00
2022-10-04T12:45:23.871Z,4.25
2022-10-04T12:48:13.827Z,5.00
2022-10-04T12:50:48.345Z,4.25
2022-10-04T12:53:22.583Z,3.00
2022-10-04T12:56:02.405Z,4.50
2022-10-04T12:58:39.900Z,6.00
2022-10-04T13:01:24.708Z,6.00
2022-10-04T13:04:19.574Z,5.00
2022-10-04T13:07:18.972Z,4.50
2022-10-04T13:10:05.529Z,3.50
2022-10-04T13:13:05.610Z,3.67
2022-10-04T13:19:08.647Z,2.00
2022-10-04T13:21:49.995Z,4.00
2022-10-04T13:24:29.639Z,3.75
2022-10-04T13:27:07.952Z,4.67
2022-10-04T13:29:53.540Z,5.50
2022-10-04T13:32:28.931Z,2.00
2022-10-04T13:35:13.025Z,3.00
2022-10-04T13:38:20.009Z,4.25
2022-10-04T13:41:12.761Z,4.75
2022-10-04T13:44:12.780Z,3.00
2022-10-04T13:47:19.050Z,3.00
2022-10-04T13:50:05.348Z,3.75
2022-10-04T13:53:13.869Z,3.00
2022-10-04T13:56:25.665Z,2.25
2022-10-04T13:59:19.138Z,3.75
2022-10-04T14:01:56.527Z,3.00
2022-10-04T14:04:57.746Z,3.00
2022-10-04T14:07:54.725Z,4.25
2022-10-04T14:10:23.214Z,4.75
2022-10-04T14:13:09.505Z,4.00
2022-10-04T14:15:55.836Z,3.25
2022-10-04T14:18:27.500Z,3.50
2022-10-04T14:21:16.669Z,1.00
2022-10-04T14:24:08.665Z,4.00
2022-10-04T14:26:40.057Z,3.00
2022-10-04T14:29:40.646Z,2.33
2022-10-04T14:32:28.686Z,2.50
2022-10-04T14:34:57.495Z,3.00
2022-10-04T14:37:43.980Z,1.00
2022-10-04T14:40:33.181Z,3.50
2022-10-04T14:43:04.496Z,2.00
2022-10-04T14:45:33.423Z,1.00
2022-10-04T14:48:42.093Z,3.25
2022-10-04T14:51:19.677Z,2.50
2022-10-04T14:54:06.325Z,3.00
2022-10-04T14:56:44.188Z,3.00
2022-10-04T14:59:15.614Z,2.75
2022-10-04T15:02:05.860Z,4.00
2022-10-04T15:04:49.189Z,3.00
2022-10-04T15:07:35.497Z,3.00
2022-10-04T15:10:06.531Z,5.00
2022-10-04T15:13:10.538Z,3.00
2022-10-04T15:16:10.043Z,2.50
2022-10-04T15:18:39.973Z,3.00
2022-10-04T15:21:32.538Z,3.00
2022-10-04T15:24:18.718Z,2.75
2022-10-04T15:27:11.876Z,2.00
2022-10-04T15:29:59.098Z,3.00
2022-10-04T15:33:06.798Z,4.50
2022-10-04T15:35:50.131Z,2.00
2022-10-04T15:38:49.639Z,4.00
2022-10-04T15:41:39.436Z,3.00
2022-10-04T15:44:15.380Z,3.00
2022-10-04T15:46:49.644Z,3.33
2022-10-04T15:49:58.319Z,3.00
2022-10-04T15:52:45.130Z,3.33
2022-10-04T15:55:49.348Z,5.25
2022-10-04T15:58:23.154Z,3.50
2022-10-04T16:01:06.861Z,4.00
2022-10-04T16:04:12.681Z,3.25
2022-10-04T16:07:08.063Z,4.75
2022-10-04T16:09:46.895Z,3.00
2022-10-04T16:12:33.466Z,4.00
2022-10-04T16:15:35.820Z,3.50
2022-10-04T16:18:36.675Z,3.75
2022-10-04T16:21:13.147Z,4.75
2022-10-04T16:23:43.457Z,5.00
2022-10-04T16:26:11.681Z,5.00
2022-10-04T16:28:45.132Z,3.25
2022-10-04T16:31:17.737Z,4.50
2022-10-04T16:33:57.913Z,2.00
2022-10-04T16:36:32.293Z,5.00
2022-10-04T16:39:20.475Z,6.00
2022-10-04T16:42:06.777Z,5.25
2022-10-04T16:44:53.073Z,7.25
2022-10-04T16:47:32.102Z,8.00
2022-10-04T16:50:02.124Z,8.50
2022-10-04T16:52:46.347Z,8.00
2022-10-04T16:55:33.291Z,8.00
2022-10-04T16:58:26.449Z,8.25
2022-10-04T17:01:27.293Z,9.00
2022-10-04T17:04:04.789Z,10.75
2022-10-04T17:06:47.321Z,9.50
2022-10-04T17:09:38.221Z,10.33
2022-10-04T17:12:35.764Z,8.50
2022-10-04T17:15:07.626Z,10.67
2022-10-04T17:18:07.760Z,7.00
2022-10-04T17:20:42.087Z,9.00
2022-10-04T17:23:25.397Z,8.75
2022-10-04T17:26:03.781Z,11.00
2022-10-04T17:28:47.553Z,10.00
2022-10-04T17:31:26.792Z,6.50
2022-10-04T17:34:08.682Z,7.75
2022-10-04T17:36:40.145Z,9.00
2022-10-04T17:39:20.390Z,5.75
2022-10-04T17:42:17.145Z,8.75
2022-10-04T17:45:22.584Z,9.75
2022-10-04T17:48:26.810Z,7.50
2022-10-04T17:51:46.486Z,5.67
2022-10-04T17:54:43.639Z,9.75
2022-10-04T17:57:30.807Z,8.50
2022-10-04T18:00:14.176Z,8.00
2022-10-04T18:03:01.277Z,9.50
2022-10-04T18:05:42.086Z,8.67
2022-10-04T18:08:21.927Z,9.25
2022-10-04T18:11:00.469Z,9.33
2022-10-04T18:13:40.943Z,10.50
2022-10-04T18:16:25.628Z,7.75
2022-10-04T18:18:54.150Z,9.00
2022-10-04T18:21:28.269Z,10.25
2022-10-04T18:23:58.812Z,7.50
2022-10-04T18:26:30.214Z,9.50
2022-10-04T18:29:01.878Z,11.00
2022-10-04T18:31:35.759Z,8.00
2022-10-04T18:34:28.366Z,8.25
2022-10-04T18:37:20.502Z,8.00
2022-10-04T18:39:54.568Z,9.25
2022-10-04T18:42:32.894Z,8.00
2022-10-04T18:45:23.829Z,8.75
2022-10-04T18:47:53.233Z,6.00
2022-10-04T18:50:21.648Z,7.00
2022-10-04T18:53:20.299Z,7.00
2022-10-04T18:55:58.089Z,9.67
2022-10-04T18:59:24.860Z,7.75
2022-10-04T19:02:09.155Z,6.00
2022-10-04T19:04:48.615Z,8.50
2022-10-04T19:07:22.355Z,8.75
2022-10-04T19:10:06.327Z,9.75
2022-10-04T19:12:37.638Z,9.00
2022-10-04T19:15:43.172Z,5.50
2022-10-04T19:18:49.969Z,9.00
2022-10-04T19:21:31.709Z,10.50
2022-10-04T19:24:37.627Z,9.75
2022-10-04T19:27:27.109Z,10.00
2022-10-04T19:30:05.822Z,11.00
2022-10-04T19:33:02.152Z,9.00
2022-10-04T19:35:41.820Z,10.67
2022-10-04T19:38:19.084Z,10.33
2022-10-04T19:41:12.449Z,6.50
2022-10-04T19:44:16.465Z,10.25
2022-10-04T19:46:56.408Z,9.50
2022-10-04T19:49:51.625Z,8.50
2022-10-04T19:52:29.117Z,10.33
2022-10-04T19:55:04.271Z,11.00
2022-10-04T19:57:42.565Z,10.25
2022-10-04T20:00:13.792Z,7.25
2022-10-04T20:02:48.672Z,9.50
2022-10-04T20:05:25.385Z,6.00
2022-10-04T20:08:05.100Z,9.00
2022-10-04T20:10:36.923Z,12.50
2022-10-04T20:13:25.680Z,9.00
2022-10-04T20:16:00.890Z,10.00
2022-10-04T20:18:32.686Z,9.75
2022-10-04T20:21:01.970Z,8.00
2022-10-04T20:23:42.136Z,11.50
2022-10-04T20:26:54.954Z,9.67
2022-10-04T20:29:39.327Z,9.00
2022-10-04T20:32:30.157Z,8.75
2022-10-04T20:34:58.802Z,10.33
2022-10-04T20:37:45.616Z,8.00
2022-10-04T20:40:25.977Z,9.00
2022-10-04T20:43:16.010Z,9.25
2022-10-04T20:45:50.473Z,8.25
2022-10-04T20:48:26.339Z,10.75
2022-10-04T20:50:55.869Z,7.75
2022-10-04T20:53:25.997Z,10.25
2022-10-04T20:56:26.843Z,8.25
2022-10-04T20:58:57.408Z,10.67
2022-10-04T21:01:47.122Z,11.00
2022-10-04T21:04:32.812Z,10.50
2022-10-04T21:07:06.409Z,9.75
2022-10-04T21:09:37.211Z,7.00
2022-10-04T21:12:07.605Z,8.50
2022-10-04T21:14:38.097Z,8.00
2022-10-04T21:17:29.006Z,8.00
2022-10-04T21:19:57.695Z,8.50
2022-10-04T21:22:25.867Z,9.00
2022-10-04T21:24:56.497Z,10.00
2022-10-04T21:27:37.683Z,8.00
2022-10-04T21:30:25.019Z,8.25
2022-10-04T21:32:53.276Z,9.00
2022-10-04T21:35:21.756Z,9.00
2022-10-04T21:37:50.256Z,8.25
2022-10-04T21:40:18.517Z,7.75
2022-10-04T21:42:46.791Z,8.25
2022-10-04T21:45:15.191Z,8.25
2022-10-04T21:47:43.555Z,7.75
2022-10-04T21:50:11.831Z,3.75
2022-10-04T21:52:40.229Z,9.00
2022-10-04T21:55:10.964Z,4.75
2022-10-04T21:57:39.424Z,4.67
2022-10-04T22:00:08.452Z,8.00
2022-10-04T22:02:36.779Z,6.50
2022-10-04T22:05:05.686Z,7.00
2022-10-04T22:07:34.069Z,6.50
2022-10-04T22:10:02.371Z,8.50
2022-10-04T22:12:30.619Z,7.50
2022-10-04T22:14:59.000Z,8.00
2022-10-04T22:17:27.481Z,7.00
2022-10-04T22:19:55.759Z,11.00
2022-10-04T22:22:24.241Z,7.00
2022-10-04T22:24:52.927Z,9.50
2022-10-04T22:27:21.615Z,9.25
2022-10-04T22:29:50.012Z,7.25
2022-10-04T22:32:24.388Z,6.75
2022-10-04T22:35:00.680Z,9.00
2022-10-04T22:37:31.283Z,7.00
2022-10-04T22:39:59.586Z,9.75
2022-10-04T22:42:32.154Z,11.00
2022-10-04T22:45:01.924Z,6.25
2022-10-04T22:47:32.199Z,6.00
2022-10-04T22:50:00.682Z,6.75
2022-10-04T22:52:30.086Z,7.50
2022-10-04T22:55:00.606Z,9.00
2022-10-04T22:57:30.736Z,8.25
2022-10-04T22:59:59.149Z,5.00
2022-10-04T23:02:30.829Z,6.75
2022-10-04T23:05:09.773Z,7.00
2022-10-04T23:07:38.775Z,5.75
2022-10-04T23:10:08.079Z,8.00
2022-10-04T23:12:37.048Z,6.75
2022-10-04T23:15:08.967Z,6.25
2022-10-04T23:17:39.584Z,7.33
2022-10-04T23:20:14.030Z,5.25
2022-10-04T23:22:47.505Z,7.00
2022-10-04T23:25:19.378Z,5.00
2022-10-04T23:27:48.537Z,6.50
2022-10-04T23:30:19.718Z,7.00
2022-10-04T23:32:50.902Z,7.00
2022-10-04T23:35:27.012Z,6.00
2022-10-04T23:37:55.494Z,6.25
2022-10-04T23:40:25.292Z,6.25
2022-10-04T23:42:56.867Z,7.00
2022-10-04T23:45:26.679Z,6.50
2022-10-04T23:47:57.509Z,6.00
2022-10-04T23:50:35.063Z,5.00
2022-10-04T23:53:06.849Z,6.33
2022-10-04T23:55:41.079Z,4.00
2022-10-04T23:58:21.633Z,4.00
